createdAt,value
2023-05-15T00:01:01.387Z,99.90
2023-05-15T00:03:31.190Z,99.90
2023-05-15T00:05:59.834Z,99.90
2023-05-15T00:08:31.163Z,99.90
2023-05-15T00:11:01.976Z,99.90
2023-05-15T00:13:30.650Z,99.90
2023-05-15T00:15:58.945Z,99.90
2023-05-15T00:18:28.418Z,99.90
2023-05-15T00:20:59.060Z,99.90
2023-05-15T00:23:28.416Z,99.90
2023-05-15T00:25:56.836Z,99.90
2023-05-15T00:28:28.501Z,99.90
2023-05-15T00:30:57.643Z,99.90
2023-05-15T00:33:27.493Z,99.90
2023-05-15T00:35:55.488Z,99.90
2023-05-15T00:38:27.861Z,99.90
2023-05-15T00:40:59.101Z,99.90
2023-05-15T00:43:28.272Z,99.90
2023-05-15T00:46:00.873Z,99.90
2023-05-15T00:48:32.663Z,99.90
2023-05-15T00:51:02.180Z,99.90
2023-05-15T00:53:32.050Z,99.90
2023-05-15T00:56:00.894Z,99.90
2023-05-15T00:58:30.454Z,99.90
2023-05-15T01:00:58.493Z,99.90
2023-05-15T01:03:27.057Z,99.90
2023-05-15T01:05:55.403Z,99.90
2023-05-15T01:08:30.262Z,99.90
2023-05-15T01:11:03.017Z,99.90
2023-05-15T01:13:31.635Z,99.90
2023-05-15T01:16:00.616Z,99.90
2023-05-15T01:18:32.485Z,99.90
2023-05-15T01:21:35.804Z,99.90
2023-05-15T01:24:12.968Z,99.90
2023-05-15T01:27:08.106Z,99.90
2023-05-15T01:29:42.424Z,99.90
2023-05-15T01:32:12.091Z,99.90
2023-05-15T01:34:46.005Z,99.90
2023-05-15T01:37:19.176Z,99.90
2023-05-15T01:39:51.565Z,99.90
2023-05-15T01:42:21.850Z,99.90
2023-05-15T01:44:55.844Z,99.90
2023-05-15T01:47:34.297Z,99.90
2023-05-15T01:50:03.948Z,99.90
2023-05-15T01:52:36.041Z,99.90
2023-05-15T01:55:05.540Z,99.90
2023-05-15T01:57:38.301Z,99.90
2023-05-15T02:00:09.453Z,99.90
2023-05-15T02:02:43.536Z,99.90
2023-05-15T02:05:13.818Z,99.90
2023-05-15T02:07:43.888Z,99.90
2023-05-15T02:10:14.000Z,99.90
2023-05-15T02:12:49.732Z,99.90
2023-05-15T02:15:19.362Z,99.90
2023-05-15T02:17:48.508Z,99.90
2023-05-15T02:20:21.148Z,99.90
2023-05-15T02:22:53.768Z,99.90
2023-05-15T02:25:28.548Z,99.90
2023-05-15T02:28:01.432Z,99.90
2023-05-15T02:30:39.317Z,99.90
2023-05-15T02:33:15.036Z,99.90
2023-05-15T02:35:49.640Z,99.90
2023-05-15T02:38:21.318Z,99.90
2023-05-15T02:40:50.882Z,99.90
2023-05-15T02:43:21.446Z,99.90
2023-05-15T02:45:54.999Z,99.90
2023-05-15T02:48:24.123Z,99.90
2023-05-15T02:50:54.491Z,99.90
2023-05-15T02:53:23.312Z,99.90
2023-05-15T02:55:51.701Z,99.90
2023-05-15T02:58:21.951Z,99.90
2023-05-15T03:00:50.478Z,99.90
2023-05-15T03:03:18.529Z,99.90
2023-05-15T03:05:46.561Z,99.90
2023-05-15T03:08:14.612Z,99.90
2023-05-15T03:10:43.153Z,99.90
2023-05-15T03:13:11.565Z,99.90
2023-05-15T03:15:41.050Z,99.90
2023-05-15T03:18:09.156Z,99.90
2023-05-15T03:20:37.552Z,99.90
2023-05-15T03:23:05.945Z,99.90
2023-05-15T03:25:34.224Z,99.90
2023-05-15T03:28:02.420Z,99.90
2023-05-15T03:30:30.677Z,99.90
2023-05-15T03:33:00.153Z,99.90
2023-05-15T03:35:29.442Z,99.90
2023-05-15T03:38:00.177Z,99.90
2023-05-15T03:40:30.296Z,99.90
2023-05-15T03:42:58.829Z,99.90
2023-05-15T03:45:27.710Z,99.90
2023-05-15T03:47:56.469Z,99.90
2023-05-15T03:50:31.722Z,99.90
2023-05-15T03:53:03.351Z,99.90
2023-05-15T03:55:32.072Z,99.90
2023-05-15T03:58:15.053Z,99.90
2023-05-15T04:00:43.754Z,99.90
2023-05-15T04:03:11.783Z,99.90
2023-05-15T04:05:41.340Z,99.90
2023-05-15T04:08:10.931Z,99.90
2023-05-15T04:10:38.890Z,99.90
2023-05-15T04:13:07.180Z,99.90
2023-05-15T04:15:36.523Z,99.90
2023-05-15T04:18:04.556Z,99.90
2023-05-15T04:20:33.705Z,99.90
2023-05-15T04:23:04.281Z,99.90
2023-05-15T04:25:32.573Z,99.90
2023-05-15T04:28:00.537Z,99.90
2023-05-15T04:30:28.659Z,99.90
2023-05-15T04:32:56.705Z,99.90
2023-05-15T04:35:25.112Z,99.90
2023-05-15T04:37:53.224Z,99.90
2023-05-15T04:40:22.579Z,99.90
2023-05-15T04:42:50.551Z,99.90
2023-05-15T04:45:18.743Z,99.90
2023-05-15T04:47:47.013Z,99.90
2023-05-15T04:50:14.875Z,99.90
2023-05-15T04:52:43.077Z,99.90
2023-05-15T04:55:11.354Z,99.90
2023-05-15T04:57:40.767Z,99.90
2023-05-15T05:00:12.330Z,99.90
2023-05-15T05:02:40.846Z,99.90
2023-05-15T05:05:09.427Z,99.90
2023-05-15T05:07:37.503Z,99.90
2023-05-15T05:10:06.289Z,99.90
2023-05-15T05:12:34.236Z,99.90
2023-05-15T05:15:03.513Z,99.90
2023-05-15T05:17:31.804Z,99.90
2023-05-15T05:19:59.720Z,99.90
2023-05-15T05:22:27.624Z,99.90
2023-05-15T05:24:55.566Z,99.90
2023-05-15T05:27:23.507Z,99.90
2023-05-15T05:29:53.372Z,99.90
2023-05-15T05:32:22.663Z,99.90
2023-05-15T05:34:50.646Z,99.90
2023-05-15T05:37:18.667Z,99.90
2023-05-15T05:39:46.971Z,99.90
2023-05-15T05:42:14.926Z,99.90
2023-05-15T05:44:42.793Z,99.90
2023-05-15T05:47:10.997Z,99.90
2023-05-15T05:49:40.779Z,99.90
2023-05-15T05:52:09.392Z,99.90
2023-05-15T05:54:37.318Z,99.90
2023-05-15T05:57:05.791Z,99.90
2023-05-15T05:59:33.764Z,99.90
2023-05-15T06:02:02.037Z,99.90
2023-05-15T06:04:30.217Z,99.90
2023-05-15T06:06:59.676Z,99.90
2023-05-15T06:09:27.696Z,99.90
2023-05-15T06:11:55.607Z,99.90
2023-05-15T06:14:23.626Z,99.90
2023-05-15T06:16:51.641Z,99.90
2023-05-15T06:19:19.673Z,99.90
2023-05-15T06:21:47.650Z,99.90
2023-05-15T06:24:16.930Z,99.90
2023-05-15T06:26:45.386Z,99.90
2023-05-15T06:29:13.316Z,99.90
2023-05-15T06:31:41.296Z,99.90
2023-05-15T06:34:09.188Z,99.90
2023-05-15T06:36:38.109Z,99.90
2023-05-15T06:39:06.822Z,99.90
2023-05-15T06:41:36.113Z,99.90
2023-05-15T06:44:04.069Z,99.90
2023-05-15T06:46:32.055Z,99.90
2023-05-15T06:49:01.341Z,99.90
2023-05-15T06:51:29.378Z,99.90
2023-05-15T06:53:57.330Z,99.90
2023-05-15T06:56:25.651Z,99.90
2023-05-15T06:58:57.157Z,99.90
2023-05-15T07:01:25.135Z,99.90
2023-05-15T07:03:53.119Z,99.90
2023-05-15T07:06:21.050Z,99.90
2023-05-15T07:08:49.439Z,99.90
2023-05-15T07:11:17.391Z,99.90
2023-05-15T07:13:45.545Z,99.90
2023-05-15T07:16:14.880Z,99.90
2023-05-15T07:18:43.257Z,99.90
2023-05-15T07:21:11.317Z,99.90
2023-05-15T07:23:39.271Z,99.90
2023-05-15T07:26:08.773Z,99.90
2023-05-15T07:28:39.981Z,99.90
2023-05-15T07:31:08.508Z,99.90
2023-05-15T07:33:37.801Z,99.90
2023-05-15T07:36:06.505Z,99.90
2023-05-15T07:38:34.575Z,99.90
2023-05-15T07:41:03.771Z,99.90
2023-05-15T07:43:34.065Z,99.90
2023-05-15T07:46:02.167Z,99.90
2023-05-15T07:48:30.124Z,99.90
2023-05-15T07:50:59.459Z,99.90
2023-05-15T07:53:27.582Z,99.90
2023-05-15T07:55:55.533Z,99.90
2023-05-15T07:58:24.007Z,99.90
2023-05-15T08:00:52.186Z,99.90
2023-05-15T08:03:20.644Z,99.90
2023-05-15T08:05:48.986Z,99.90
2023-05-15T08:08:18.190Z,99.70
2023-05-15T08:10:46.278Z,96.60
2023-05-15T08:13:14.281Z,98.30
2023-05-15T08:15:42.244Z,99.90
2023-05-15T08:18:10.939Z,99.90
2023-05-15T08:20:39.357Z,99.90
2023-05-15T08:23:07.760Z,97.80
2023-05-15T08:25:37.116Z,95.20
2023-05-15T08:28:05.759Z,95.10
2023-05-15T08:30:33.708Z,95.80
2023-05-15T08:33:01.756Z,96.20
2023-05-15T08:35:30.284Z,96.50
2023-05-15T08:37:58.979Z,96.10
2023-05-15T08:40:38.281Z,94.50
2023-05-15T08:43:15.134Z,92.80
2023-05-15T08:45:44.199Z,88.60
2023-05-15T08:48:14.974Z,79.00
2023-05-15T08:50:44.534Z,72.00
2023-05-15T08:53:16.055Z,75.70
2023-05-15T08:55:44.200Z,83.40
2023-05-15T08:58:14.330Z,82.10
2023-05-15T09:00:42.570Z,82.90
2023-05-15T09:03:15.494Z,84.10
2023-05-15T09:05:43.980Z,88.60
2023-05-15T09:08:12.091Z,93.60
2023-05-15T09:10:40.432Z,99.90
2023-05-15T09:13:10.169Z,99.90
2023-05-15T09:15:39.700Z,99.90
2023-05-15T09:18:08.104Z,99.90
2023-05-15T09:20:37.950Z,99.90
2023-05-15T09:23:22.582Z,99.90
2023-05-15T09:25:53.679Z,99.90
2023-05-15T09:28:29.651Z,99.90
2023-05-15T09:31:03.075Z,99.90
2023-05-15T09:33:33.115Z,99.90
2023-05-15T09:36:01.751Z,99.90
2023-05-15T09:38:30.828Z,99.90
2023-05-15T09:41:06.446Z,99.90
2023-05-15T09:43:38.856Z,97.90
2023-05-15T09:46:12.264Z,99.60
2023-05-15T09:48:40.507Z,96.40
2023-05-15T09:51:15.996Z,92.70
2023-05-15T09:53:44.006Z,93.40
2023-05-15T09:56:11.939Z,92.40
2023-05-15T09:58:39.882Z,91.70
2023-05-15T10:01:12.412Z,90.20
2023-05-15T10:03:43.700Z,82.10
2023-05-15T10:06:19.171Z,90.20
2023-05-15T10:08:53.112Z,84.20
2023-05-15T10:11:22.645Z,85.70
2023-05-15T10:13:50.811Z,89.90
2023-05-15T10:16:25.200Z,86.50
2023-05-15T10:18:53.609Z,80.40
2023-05-15T10:21:23.107Z,78.30
2023-05-15T10:23:52.024Z,72.20
2023-05-15T10:26:24.863Z,69.50
2023-05-15T10:28:53.936Z,67.90
2023-05-15T10:31:24.594Z,75.80
2023-05-15T10:33:53.585Z,71.30
2023-05-15T10:36:22.133Z,72.30
2023-05-15T10:38:51.380Z,76.90
2023-05-15T10:41:21.477Z,80.00
2023-05-15T10:43:50.426Z,85.60
2023-05-15T10:46:18.695Z,89.20
2023-05-15T10:48:48.294Z,89.20
2023-05-15T10:51:17.560Z,91.90
2023-05-15T10:53:45.953Z,92.90
2023-05-15T10:56:16.595Z,94.60
2023-05-15T10:58:48.980Z,93.50
2023-05-15T11:01:27.977Z,96.20
2023-05-15T11:04:19.255Z,99.90
2023-05-15T11:06:49.446Z,99.90
2023-05-15T11:09:40.700Z,99.90
2023-05-15T11:12:10.432Z,99.90
2023-05-15T11:14:40.245Z,99.90
2023-05-15T11:17:09.793Z,99.90
2023-05-15T11:20:01.326Z,99.90
2023-05-15T11:22:32.290Z,99.90
2023-05-15T11:25:02.324Z,99.90
2023-05-15T11:27:32.040Z,99.90
2023-05-15T11:30:20.655Z,99.90
2023-05-15T11:32:55.732Z,99.90
2023-05-15T11:35:27.693Z,99.90
2023-05-15T11:37:57.945Z,99.90
2023-05-15T11:40:28.470Z,99.90
2023-05-15T11:43:04.753Z,99.90
2023-05-15T11:45:34.890Z,99.90
2023-05-15T11:48:04.561Z,99.90
2023-05-15T11:50:35.046Z,99.90
2023-05-15T11:53:05.178Z,99.90
2023-05-15T11:55:34.327Z,99.90
2023-05-15T11:58:03.050Z,99.90
2023-05-15T12:00:31.169Z,99.90
2023-05-15T12:02:59.238Z,99.90
2023-05-15T12:05:27.202Z,99.90
2023-05-15T12:07:56.540Z,99.90
2023-05-15T12:10:25.145Z,99.90
2023-05-15T12:12:53.703Z,99.90
2023-05-15T12:15:21.670Z,99.90
2023-05-15T12:17:51.671Z,99.90
2023-05-15T12:20:20.270Z,99.90
2023-05-15T12:22:48.180Z,99.90
2023-05-15T12:25:17.693Z,99.90
2023-05-15T12:27:45.913Z,99.90
2023-05-15T12:30:16.437Z,99.90
2023-05-15T12:32:45.113Z,99.90
2023-05-15T12:35:13.161Z,99.90
2023-05-15T12:37:42.554Z,99.90
2023-05-15T12:40:12.133Z,99.90
2023-05-15T12:42:43.240Z,99.90
2023-05-15T12:45:15.477Z,99.90
2023-05-15T12:47:45.315Z,99.90
2023-05-15T12:50:16.372Z,99.90
2023-05-15T12:52:55.171Z,99.90
2023-05-15T12:55:27.777Z,99.90
2023-05-15T12:57:58.724Z,99.90
2023-05-15T13:00:27.269Z,99.90
2023-05-15T13:02:57.329Z,99.90
2023-05-15T13:05:26.091Z,99.90
2023-05-15T13:07:54.589Z,99.90
2023-05-15T13:10:24.391Z,99.90
2023-05-15T13:12:54.603Z,99.90
2023-05-15T13:15:32.464Z,99.90
2023-05-15T13:18:00.972Z,99.90
2023-05-15T13:20:29.768Z,99.90
2023-05-15T13:22:57.727Z,99.90
2023-05-15T13:25:25.733Z,99.90
2023-05-15T13:27:53.858Z,99.90
2023-05-15T13:30:21.852Z,99.90
2023-05-15T13:32:55.367Z,99.90
2023-05-15T13:35:23.854Z,99.90
2023-05-15T13:37:51.779Z,99.90
2023-05-15T13:40:19.917Z,99.90
2023-05-15T13:42:47.838Z,99.90
2023-05-15T13:45:17.047Z,99.90
2023-05-15T13:47:45.682Z,99.90
2023-05-15T13:50:16.395Z,99.90
2023-05-15T13:52:45.346Z,99.90
2023-05-15T13:55:13.433Z,99.90
2023-05-15T13:57:43.264Z,99.90
2023-05-15T14:00:13.857Z,99.90
2023-05-15T14:02:43.095Z,99.90
2023-05-15T14:05:12.470Z,99.90
2023-05-15T14:07:42.238Z,99.90
2023-05-15T14:10:11.116Z,99.90
2023-05-15T14:12:40.727Z,99.90
2023-05-15T14:15:11.208Z,99.90
2023-05-15T14:17:39.332Z,99.90
2023-05-15T14:20:09.954Z,99.90
2023-05-15T14:22:38.730Z,99.90
2023-05-15T14:25:09.880Z,99.90
2023-05-15T14:27:37.940Z,99.90
2023-05-15T14:30:07.030Z,99.90
2023-05-15T14:32:35.433Z,99.90
2023-05-15T14:35:04.082Z,99.90
2023-05-15T14:37:32.124Z,99.90
2023-05-15T14:40:00.153Z,99.90
2023-05-15T14:42:29.488Z,99.90
2023-05-15T14:44:58.492Z,99.90
2023-05-15T14:47:28.267Z,99.90
2023-05-15T14:49:56.490Z,99.90
2023-05-15T14:52:24.510Z,99.90
2023-05-15T14:55:04.868Z,99.90
2023-05-15T14:57:38.507Z,99.90
2023-05-15T15:00:08.214Z,99.90
2023-05-15T15:02:36.408Z,99.90
2023-05-15T15:05:06.707Z,99.90
2023-05-15T15:08:01.551Z,99.90
2023-05-15T15:10:29.971Z,99.90
2023-05-15T15:12:59.990Z,99.90
2023-05-15T15:15:29.764Z,99.90
2023-05-15T15:17:58.260Z,99.90
2023-05-15T15:20:27.782Z,99.90
2023-05-15T15:22:57.082Z,99.90
2023-05-15T15:25:25.283Z,99.90
2023-05-15T15:27:53.738Z,99.90
2023-05-15T15:30:25.191Z,99.90
2023-05-15T15:32:54.642Z,99.90
2023-05-15T15:35:23.232Z,99.90
2023-05-15T15:37:51.452Z,99.90
2023-05-15T15:40:19.707Z,99.90
2023-05-15T15:42:48.026Z,99.90
2023-05-15T15:45:18.819Z,99.90
2023-05-15T15:47:48.179Z,99.90
2023-05-15T15:50:16.557Z,99.90
2023-05-15T15:52:44.458Z,99.90
2023-05-15T15:55:12.379Z,99.90
2023-05-15T15:57:40.339Z,99.90
2023-05-15T16:00:09.554Z,99.90
2023-05-15T16:02:37.818Z,99.90
2023-05-15T16:05:08.555Z,99.90
2023-05-15T16:07:36.869Z,99.90
2023-05-15T16:10:12.253Z,99.90
2023-05-15T16:12:42.345Z,99.90
2023-05-15T16:17:42.227Z,99.90
2023-05-15T16:20:12.926Z,99.90
2023-05-15T16:22:43.342Z,99.90
2023-05-15T16:25:11.372Z,99.90
2023-05-15T16:27:39.455Z,99.90
2023-05-15T16:30:09.286Z,99.90
2023-05-15T16:32:39.797Z,99.90
2023-05-15T16:35:08.808Z,99.90
2023-05-15T16:37:38.223Z,99.90
2023-05-15T16:40:07.251Z,99.90
2023-05-15T16:42:38.863Z,99.90
2023-05-15T16:45:08.140Z,99.90
2023-05-15T16:47:37.767Z,99.90
2023-05-15T16:50:07.076Z,99.90
2023-05-15T16:52:35.356Z,99.90
2023-05-15T16:55:05.035Z,99.90
2023-05-15T16:57:32.934Z,99.90
2023-05-15T17:00:00.978Z,99.90
2023-05-15T17:02:29.021Z,99.90
2023-05-15T17:04:57.257Z,99.90
2023-05-15T17:07:25.114Z,99.90
2023-05-15T17:09:54.778Z,99.90
2023-05-15T17:12:24.284Z,99.90
2023-05-15T17:14:52.253Z,99.90
2023-05-15T17:17:20.233Z,99.90
2023-05-15T17:19:48.126Z,99.90
2023-05-15T17:22:16.071Z,99.90
2023-05-15T17:27:18.390Z,99.90
2023-05-15T17:29:48.490Z,99.90
2023-05-15T17:32:17.191Z,99.90
2023-05-15T17:34:45.934Z,99.90
2023-05-15T17:37:15.685Z,99.90
2023-05-15T17:39:46.222Z,99.90
2023-05-15T17:42:14.155Z,99.90
2023-05-15T17:44:42.070Z,99.90
2023-05-15T17:47:11.382Z,99.90
2023-05-15T17:49:39.489Z,99.90
2023-05-15T17:52:08.128Z,99.90
2023-05-15T17:54:39.093Z,99.90
2023-05-15T17:57:07.157Z,99.90
2023-05-15T17:59:35.243Z,99.90
2023-05-15T18:02:03.388Z,99.90
2023-05-15T18:04:32.790Z,99.90
2023-05-15T18:07:00.708Z,99.90
2023-05-15T18:09:28.710Z,99.90
2023-05-15T18:11:56.697Z,99.90
2023-05-15T18:14:24.660Z,99.90
2023-05-15T18:16:56.653Z,99.90
2023-05-15T18:19:24.901Z,99.90
2023-05-15T18:21:54.172Z,99.90
2023-05-15T18:24:22.103Z,99.90
2023-05-15T18:26:50.040Z,99.90
2023-05-15T18:29:17.935Z,99.90
2023-05-15T18:31:45.974Z,99.90
2023-05-15T18:34:13.945Z,99.90
2023-05-15T18:36:41.814Z,99.90
2023-05-15T18:39:11.087Z,99.90
2023-05-15T18:41:39.107Z,99.90
2023-05-15T18:44:07.190Z,99.90
2023-05-15T18:46:35.396Z,99.90
2023-05-15T18:49:03.387Z,99.90
2023-05-15T18:51:31.253Z,99.90
2023-05-15T18:53:59.146Z,99.90
2023-05-15T18:56:28.504Z,99.90
2023-05-15T18:58:56.368Z,99.90
2023-05-15T19:01:24.502Z,99.90
2023-05-15T19:03:52.481Z,99.90
2023-05-15T19:06:20.645Z,99.90
2023-05-15T19:08:49.277Z,99.90
2023-05-15T19:11:17.683Z,99.90
2023-05-15T19:13:46.983Z,99.90
2023-05-15T19:16:14.926Z,99.90
2023-05-15T19:18:43.129Z,99.90
2023-05-15T19:21:11.419Z,99.90
2023-05-15T19:23:39.376Z,99.90
2023-05-15T19:26:07.309Z,99.90
2023-05-15T19:28:35.689Z,99.90
2023-05-15T19:31:06.254Z,99.90
2023-05-15T19:33:36.340Z,99.90
2023-05-15T19:36:04.274Z,99.90
2023-05-15T19:38:32.426Z,99.90
2023-05-15T19:41:00.339Z,99.90
2023-05-15T19:43:28.595Z,99.90
2023-05-15T19:45:56.523Z,99.90
2023-05-15T19:48:26.094Z,99.90
2023-05-15T19:50:53.988Z,99.90
2023-05-15T19:53:21.960Z,99.90
2023-05-15T19:55:50.076Z,99.90
2023-05-15T19:58:19.157Z,99.90
2023-05-15T20:00:48.409Z,99.90
2023-05-15T20:03:16.486Z,99.90
2023-05-15T20:05:53.835Z,99.90
2023-05-15T20:08:21.800Z,99.90
2023-05-15T20:10:52.616Z,99.90
2023-05-15T20:13:20.803Z,99.90
2023-05-15T20:15:48.970Z,99.90
2023-05-15T20:18:17.200Z,99.90
2023-05-15T20:20:46.503Z,99.90
2023-05-15T20:23:15.627Z,99.90
2023-05-15T20:25:43.691Z,99.90
2023-05-15T20:28:11.598Z,99.90
2023-05-15T20:30:39.886Z,99.90
2023-05-15T20:33:08.127Z,99.90
2023-05-15T20:35:38.717Z,99.90
2023-05-15T20:38:08.186Z,99.90
2023-05-15T20:40:36.080Z,99.90
2023-05-15T20:43:04.681Z,99.90
2023-05-15T20:45:34.081Z,99.90
2023-05-15T20:48:02.098Z,99.90
2023-05-15T20:50:29.999Z,99.90
2023-05-15T20:52:58.022Z,99.90
2023-05-15T20:55:29.568Z,99.90
2023-05-15T20:57:57.545Z,99.90
2023-05-15T21:00:25.800Z,99.90
2023-05-15T21:02:54.165Z,99.90
2023-05-15T21:05:23.150Z,99.90
2023-05-15T21:07:51.177Z,99.90
2023-05-15T21:10:19.171Z,99.90
2023-05-15T21:12:48.458Z,99.90
2023-05-15T21:15:16.552Z,99.90
2023-05-15T21:17:44.577Z,99.90
2023-05-15T21:20:13.377Z,99.90
2023-05-15T21:22:41.734Z,99.90
2023-05-15T21:25:11.142Z,99.90
2023-05-15T21:27:39.151Z,99.90
2023-05-15T21:30:12.305Z,99.90
2023-05-15T21:32:40.556Z,99.90
2023-05-15T21:35:09.488Z,99.90
2023-05-15T21:37:37.431Z,99.90
2023-05-15T21:40:06.599Z,99.90
2023-05-15T21:42:34.527Z,99.90
2023-05-15T21:45:03.742Z,99.90
2023-05-15T21:47:34.832Z,99.90
2023-05-15T21:50:05.024Z,99.90
2023-05-15T21:52:33.697Z,99.90
2023-05-15T21:55:01.668Z,99.90
2023-05-15T21:57:29.757Z,99.90
2023-05-15T21:59:57.899Z,99.90
2023-05-15T22:02:26.550Z,99.90
2023-05-15T22:04:55.963Z,99.90
2023-05-15T22:07:23.947Z,99.90
2023-05-15T22:09:53.146Z,99.90
2023-05-15T22:12:21.338Z,99.90
2023-05-15T22:14:58.295Z,99.90
2023-05-15T22:17:30.522Z,99.90
2023-05-15T22:20:08.225Z,99.90
2023-05-15T22:22:37.070Z,99.90
2023-05-15T22:25:05.664Z,99.90
2023-05-15T22:27:33.651Z,99.90
2023-05-15T22:30:01.652Z,99.90
2023-05-15T22:32:29.621Z,99.90
2023-05-15T22:34:59.063Z,99.90
2023-05-15T22:37:27.410Z,99.90
2023-05-15T22:39:55.977Z,99.90
2023-05-15T22:42:23.985Z,99.90
2023-05-15T22:44:52.057Z,99.90
2023-05-15T22:47:20.759Z,99.90
2023-05-15T22:49:48.647Z,99.90
2023-05-15T22:52:19.043Z,99.90
2023-05-15T22:54:47.099Z,99.90
2023-05-15T22:57:15.033Z,99.90
2023-05-15T22:59:43.220Z,99.90
2023-05-15T23:02:11.159Z,99.90
2023-05-15T23:04:39.213Z,99.90
2023-05-15T23:07:07.141Z,99.90
2023-05-15T23:09:36.560Z,99.90
2023-05-15T23:12:04.715Z,99.90
2023-05-15T23:14:32.623Z,99.90
2023-05-15T23:17:00.512Z,99.90
2023-05-15T23:19:28.745Z,99.90
2023-05-15T23:21:57.105Z,99.90
2023-05-15T23:24:25.097Z,99.90
2023-05-15T23:26:54.380Z,99.90
2023-05-15T23:29:22.282Z,99.90
2023-05-15T23:31:50.285Z,99.90
2023-05-15T23:34:18.263Z,99.90
2023-05-15T23:36:46.493Z,99.90
2023-05-15T23:39:14.719Z,99.90
2023-05-15T23:41:42.965Z,99.90
2023-05-15T23:44:12.259Z,99.90
2023-05-15T23:46:40.209Z,99.90
2023-05-15T23:49:08.169Z,99.90
2023-05-15T23:51:36.523Z,99.90
2023-05-15T23:54:05.287Z,99.90
2023-05-15T23:56:33.368Z,99.90
2023-05-15T23:59:01.619Z,99.90
